Terminal Aerodrome Forecast
Issued by NWS Chicago, IL

Home | Current Version | Previous Version | Graphics & Text | Print | Product List | Glossary On
Versions: 1 2 3 4 5 6 7 8 9 10 11 12 13 14 15 16 17 18 19 20 21 22 23 24 25 26 27 28
000
FTUS43 KLOT 220910 AAA
TAFRFD
TAF AMD
KRFD 220910Z 2209/2306 28012G20KT P6SM VCSH SCT015 BKN025 OVC150
      TEMPO 2209/2212 25008KT 4SM -SHRA BR OVC015
     FM221200 30011KT P6SM BKN015
     FM221600 34014G20KT P6SM SCT035
     FM230100 31008KT P6SM SKC=

USA.gov is the U.S. government's official web portal to all federal, state and local government web resources and services.